Time;durP1;ratioP1;P1;durP2;ratioP2;P2;SDS_P1;SDS_P2;PMS_P1;PMS_P2;Temp;Humidity;BMP_temperature;BMP_pressure;BME280_temperature;BME280_humidity;BME280_pressure;Samples;Min_cycle;Max_cycle;Signal;HPM_P1;HPM_P2
2022/03/12 05:22:34;;;;;;;11.80;7.65;;;;;;;4.71;55.65;100591.91;5129554;27;20115;-73
2022/03/12 05:25:00;;;;;;;13.13;8.60;;;;;;;4.68;55.42;100586.84;5145845;27;20035;-71
2022/03/12 05:27:28;;;;;;;17.23;8.95;;;;;;;4.72;54.30;100590.09;5129749;28;20576;-72
2022/03/12 05:29:54;;;;;;;15.32;8.65;;;;;;;4.75;53.58;100597.75;5129679;28;20032;-72
2022/03/12 05:32:20;;;;;;;13.88;8.35;;;;;;;4.61;54.21;100575.97;5134376;22;20060;-75
2022/03/12 05:34:46;;;;;;;14.88;8.25;;;;;;;4.71;53.83;100597.19;5051605;28;20047;-76
2022/03/12 05:37:12;;;;;;;13.05;8.88;;;;;;;4.77;53.92;100603.75;5051282;28;20127;-75
2022/03/12 05:39:37;;;;;;;14.60;8.68;;;;;;;4.74;54.07;100609.28;5068908;28;20067;-75
2022/03/12 05:42:05;;;;;;;12.93;7.80;;;;;;;4.73;55.58;100602.31;5050629;28;20037;-76
2022/03/12 05:44:34;;;;;;;15.25;9.27;;;;;;;4.75;55.14;100610.94;5051238;28;20032;-76
2022/03/12 05:47:03;;;;;;;12.57;8.90;;;;;;;4.77;53.79;100614.31;5069005;28;20037;-76
2022/03/12 05:49:29;;;;;;;12.98;8.73;;;;;;;4.78;53.15;100602.78;5068798;28;20068;-76
2022/03/12 05:51:56;;;;;;;14.68;8.63;;;;;;;4.77;53.19;100601.94;5050788;28;20044;-76
2022/03/12 05:54:23;;;;;;;10.80;8.27;;;;;;;4.79;53.70;100605.28;5069442;28;20098;-76
2022/03/12 05:56:49;;;;;;;15.68;9.20;;;;;;;4.79;54.20;100607.09;5034295;28;20040;-75
2022/03/12 05:59:15;;;;;;;12.85;8.63;;;;;;;4.79;54.54;100609.72;5068300;28;20458;-75
2022/03/12 06:01:40;;;;;;;14.88;8.45;;;;;;;4.75;54.08;100614.41;5068020;28;20041;-75
2022/03/12 06:04:08;;;;;;;14.18;9.88;;;;;;;4.71;55.48;100615.66;5068302;28;20041;-75
2022/03/12 06:06:35;;;;;;;13.07;8.05;;;;;;;4.81;53.95;100607.78;5068185;28;20048;-75
2022/03/12 06:09:07;;;;;;;14.10;8.70;;;;;;;4.88;53.86;100612.44;5050166;28;20421;-75
2022/03/12 06:11:37;;;;;;;18.98;9.15;;;;;;;4.94;54.16;100612.91;5049915;28;20588;-75
2022/03/12 06:14:04;;;;;;;19.65;9.73;;;;;;;5.01;53.67;100600.84;5050003;28;20033;-75
2022/03/12 06:16:31;;;;;;;14.93;8.60;;;;;;;5.04;53.75;100604.09;5033783;28;20033;-75
2022/03/12 06:18:57;;;;;;;15.13;8.68;;;;;;;5.15;53.37;100606.66;5050484;28;20401;-75
2022/03/12 06:21:23;;;;;;;13.20;9.15;;;;;;;5.23;53.46;100600.72;5067552;28;20033;-75
2022/03/12 06:23:49;;;;;;;13.80;8.60;;;;;;;5.30;53.00;100606.31;5067357;28;20060;-75
2022/03/12 06:26:16;;;;;;;13.63;8.52;;;;;;;5.38;53.60;100612.63;5049768;28;20128;-74
2022/03/12 06:28:43;;;;;;;13.65;8.68;;;;;;;5.44;53.56;100605.97;5067486;28;20458;-75
2022/03/12 06:31:12;;;;;;;15.47;8.73;;;;;;;5.54;53.55;100601.59;5049871;28;20043;-75
2022/03/12 06:33:38;;;;;;;11.80;8.13;;;;;;;5.64;52.92;100606.91;5055415;28;20291;-75
2022/03/12 06:36:04;;;;;;;16.48;8.57;;;;;;;5.79;52.99;100608.22;5019920;28;20056;-75
2022/03/12 06:38:32;;;;;;;12.55;8.52;;;;;;;5.94;52.64;100619.31;5036252;28;20097;-75
2022/03/12 06:40:58;;;;;;;15.57;9.27;;;;;;;6.06;52.30;100614.72;5053945;28;20037;-75
2022/03/12 06:43:26;;;;;;;13.80;8.75;;;;;;;6.04;53.02;100612.22;5053573;28;20032;-75
2022/03/12 06:45:53;;;;;;;15.02;9.10;;;;;;;6.07;53.77;100611.13;5036481;28;20090;-76
2022/03/12 06:48:19;;;;;;;16.95;8.98;;;;;;;6.10;52.85;100622.25;5053893;28;20037;-75
2022/03/12 06:50:45;;;;;;;11.02;8.13;;;;;;;6.19;52.17;100615.31;5053764;28;20378;-75
2022/03/12 06:53:12;;;;;;;13.57;8.40;;;;;;;6.31;52.34;100611.59;5053448;28;20440;-76
2022/03/12 06:55:38;;;;;;;14.88;8.07;;;;;;;6.42;51.41;100614.13;5053734;28;20201;-75
2022/03/12 06:58:03;;;;;;;14.48;8.15;;;;;;;6.51;50.98;100610.63;5053724;28;20064;-75
2022/03/12 07:00:31;;;;;;;14.15;9.18;;;;;;;6.58;51.62;100618.84;5019616;28;20037;-75
2022/03/12 07:02:57;;;;;;;12.60;8.55;;;;;;;6.64;51.88;100615.66;5053350;28;20478;-75
2022/03/12 07:05:24;;;;;;;12.20;8.38;;;;;;;6.74;50.60;100613.84;5053514;28;20041;-75
2022/03/12 07:07:50;;;;;;;12.52;8.57;;;;;;;6.81;50.71;100619.44;5053601;28;20064;-75
2022/03/12 07:10:16;;;;;;;15.00;7.88;;;;;;;6.93;50.98;100617.47;5053951;28;20040;-75
2022/03/12 07:12:45;;;;;;;14.00;8.55;;;;;;;7.00;50.81;100621.22;5035108;28;20024;-75
2022/03/12 07:15:12;;;;;;;13.52;8.80;;;;;;;6.90;50.92;100609.78;5053179;28;20044;-75
2022/03/12 07:17:40;;;;;;;16.30;8.65;;;;;;;7.05;50.66;100621.66;5052907;28;20083;-75
2022/03/12 07:20:07;;;;;;;15.63;9.48;;;;;;;7.07;51.21;100619.69;5053559;28;20119;-75
2022/03/12 07:22:32;;;;;;;13.68;8.63;;;;;;;7.16;50.86;100628.59;5050908;28;20398;-76
2022/03/12 07:24:58;;;;;;;17.73;9.65;;;;;;;7.33;49.52;100620.75;5054124;28;20036;-76
2022/03/12 07:27:26;;;;;;;12.90;8.88;;;;;;;7.37;48.98;100623.09;5019676;28;20041;-76
2022/03/12 07:29:53;;;;;;;13.32;8.57;;;;;;;7.45;48.81;100617.94;5054131;28;20079;-76
2022/03/12 07:32:20;;;;;;;11.10;8.13;;;;;;;7.58;48.73;100615.81;5054106;28;20037;-76
2022/03/12 07:34:45;;;;;;;13.02;8.75;;;;;;;7.68;48.57;100611.28;5036232;28;20079;-75
2022/03/12 07:37:11;;;;;;;12.02;8.73;;;;;;;7.78;47.63;100616.56;5036027;28;20033;-76
2022/03/12 07:39:38;;;;;;;15.07;8.20;;;;;;;7.93;47.53;100611.59;5055788;28;20403;-75
2022/03/12 07:42:04;;;;;;;14.30;8.60;;;;;;;8.09;46.84;100615.31;5035277;28;20068;-75
2022/03/12 07:44:30;;;;;;;14.30;8.60;;;;;;;8.06;48.32;100617.41;5052222;28;20033;-75
2022/03/12 07:46:56;;;;;;;15.60;8.88;;;;;;;8.22;47.30;100617.59;5035652;28;20037;-75
2022/03/12 07:49:23;;;;;;;19.92;8.93;;;;;;;8.37;47.42;100621.44;5053007;28;20039;-75
2022/03/12 07:51:50;;;;;;;17.67;9.98;;;;;;;8.29;47.36;100615.19;5035022;28;20087;-75
2022/03/12 07:54:16;;;;;;;16.63;9.35;;;;;;;8.48;47.32;100624.88;5052949;28;20171;-75
2022/03/12 07:56:42;;;;;;;14.32;8.63;;;;;;;8.65;46.78;100618.72;5052847;28;20037;-75
2022/03/12 07:59:09;;;;;;;14.90;9.13;;;;;;;8.92;46.34;100620.44;5034911;28;20063;-75
2022/03/12 08:01:34;;;;;;;15.50;9.43;;;;;;;9.05;45.79;100626.19;5035507;28;20032;-75
2022/03/12 08:04:02;;;;;;;13.30;8.70;;;;;;;9.25;45.24;100621.53;5039015;28;20033;-76
2022/03/12 08:06:29;;;;;;;13.35;8.93;;;;;;;9.32;45.95;100621.75;5037712;28;20839;-73
2022/03/12 08:08:57;;;;;;;17.17;11.82;;;;;;;9.47;45.14;100628.19;5054285;28;20043;-72
2022/03/12 08:11:28;;;;;;;15.20;8.90;;;;;;;9.31;44.47;100620.91;5054620;28;20486;-72
2022/03/12 08:14:06;;;;;;;13.93;9.75;;;;;;;9.24;44.62;100626.00;5053947;28;20444;-72
2022/03/12 08:16:35;;;;;;;13.85;9.30;;;;;;;9.35;44.34;100627.59;5053448;28;20040;-70
2022/03/12 08:19:05;;;;;;;13.20;9.05;;;;;;;9.46;43.60;100622.03;5034919;28;20383;-72
2022/03/12 08:21:31;;;;;;;13.45;9.38;;;;;;;9.46;44.02;100623.84;5052171;28;20478;-72
2022/03/12 08:23:58;;;;;;;17.05;9.07;;;;;;;9.50;43.23;100626.03;5051957;28;20041;-71
2022/03/12 08:26:24;;;;;;;20.77;9.18;;;;;;;9.81;42.29;100624.69;5052043;28;20036;-72
2022/03/12 08:28:50;;;;;;;14.32;8.88;;;;;;;10.02;41.58;100617.97;5051954;28;20044;-71
2022/03/12 08:31:16;;;;;;;11.82;8.63;;;;;;;10.23;41.35;100633.53;5051853;28;20029;-72
2022/03/12 08:33:42;;;;;;;15.00;11.35;;;;;;;10.32;41.11;100629.09;5033517;28;20082;-72
2022/03/12 08:36:08;;;;;;;14.05;9.73;;;;;;;10.30;40.67;100631.06;5051885;28;20071;-71
2022/03/12 08:38:35;;;;;;;12.35;8.40;;;;;;;10.57;40.14;100630.81;5051854;28;20029;-73
2022/03/12 08:41:05;;;;;;;15.57;11.35;;;;;;;10.49;40.13;100637.94;5051828;28;20044;-71
2022/03/12 08:43:32;;;;;;;17.42;11.23;;;;;;;10.77;40.92;100650.00;5051394;28;20033;-72
2022/03/12 08:45:58;;;;;;;14.50;8.33;;;;;;;10.75;40.10;100637.81;5051711;28;20045;-71
2022/03/12 08:48:24;;;;;;;14.65;9.55;;;;;;;10.76;40.60;100639.50;5051626;28;20049;-71
2022/03/12 08:50:49;;;;;;;12.00;8.48;;;;;;;10.97;39.46;100642.53;5051478;28;20091;-71
2022/03/12 08:53:18;;;;;;;12.98;8.43;;;;;;;10.69;39.65;100639.31;5051384;28;20044;-72
2022/03/12 08:55:43;;;;;;;14.00;9.63;;;;;;;11.07;39.41;100637.84;5051488;28;20056;-71
2022/03/12 08:58:10;;;;;;;11.93;7.63;;;;;;;11.40;40.98;100654.66;5051770;28;20043;-72
2022/03/12 09:00:36;;;;;;;16.13;8.52;;;;;;;11.52;39.24;100649.81;5051590;28;20116;-72
2022/03/12 09:03:03;;;;;;;11.75;8.57;;;;;;;11.56;39.02;100644.97;5051133;28;20039;-72
2022/03/12 09:05:29;;;;;;;12.43;8.32;;;;;;;11.64;37.05;100651.13;5051481;28;20028;-72
2022/03/12 09:07:56;;;;;;;12.55;8.57;;;;;;;11.83;37.03;100641.09;5051478;28;20147;-71
2022/03/12 09:10:23;;;;;;;10.05;8.15;;;;;;;11.86;37.20;100635.41;5051270;28;20044;-72
2022/03/12 09:12:49;;;;;;;13.00;8.27;;;;;;;11.88;36.23;100639.56;5050965;28;20049;-72
2022/03/12 09:15:18;;;;;;;15.55;8.32;;;;;;;12.05;36.55;100642.16;5051330;28;20568;-72
2022/03/12 09:17:43;;;;;;;13.25;8.55;;;;;;;12.37;36.11;100636.69;5051478;28;20045;-72
2022/03/12 09:20:09;;;;;;;11.90;8.43;;;;;;;12.19;35.89;100634.28;5051453;28;20044;-72
2022/03/12 09:22:35;;;;;;;12.38;8.23;;;;;;;12.11;36.45;100636.13;5050981;28;20820;-72
2022/03/12 09:25:07;;;;;;;12.10;8.48;;;;;;;12.05;37.59;100637.66;5051330;28;20052;-72
2022/03/12 09:27:33;;;;;;;13.82;8.95;;;;;;;12.28;37.54;100632.41;5051587;28;20072;-72
2022/03/12 09:29:59;;;;;;;14.48;8.57;;;;;;;12.65;36.85;100633.50;5051441;28;20064;-72
2022/03/12 09:32:25;;;;;;;15.63;8.93;;;;;;;13.01;35.01;100634.56;5051030;28;20463;-72
2022/03/12 09:34:52;;;;;;;12.18;9.23;;;;;;;13.14;34.49;100633.97;5033458;28;20108;-71
2022/03/12 09:37:18;;;;;;;13.20;8.80;;;;;;;13.26;34.07;100632.56;5051294;28;20059;-71
2022/03/12 09:39:44;;;;;;;14.40;8.55;;;;;;;13.59;33.91;100624.22;5051069;28;20047;-71
2022/03/12 09:42:10;;;;;;;12.98;9.10;;;;;;;13.75;33.45;100626.69;5050780;28;20045;-71
2022/03/12 09:44:36;;;;;;;13.25;8.55;;;;;;;13.61;33.95;100630.19;5051009;28;20397;-71
2022/03/12 09:47:01;;;;;;;11.95;9.10;;;;;;;13.73;34.06;100634.09;5033225;28;20029;-71
2022/03/12 09:49:27;;;;;;;14.35;9.52;;;;;;;14.05;33.17;100618.66;5051108;28;20374;-72
2022/03/12 09:51:53;;;;;;;11.07;8.60;;;;;;;14.21;32.97;100621.09;5050713;28;20558;-71
2022/03/12 09:54:19;;;;;;;12.68;8.93;;;;;;;14.08;33.28;100626.31;5050865;28;20119;-72
2022/03/12 09:56:45;;;;;;;13.35;9.27;;;;;;;14.23;33.45;100624.44;5051062;28;20037;-70
2022/03/12 09:59:11;;;;;;;14.13;8.75;;;;;;;14.29;33.76;100629.06;5033136;28;20033;-71
2022/03/12 10:01:36;;;;;;;12.32;9.32;;;;;;;14.33;35.23;100629.50;5050713;28;20116;-72
2022/03/12 10:04:03;;;;;;;15.80;10.05;;;;;;;14.51;33.30;100618.41;5051004;28;20537;-72
2022/03/12 10:06:31;;;;;;;12.63;9.23;;;;;;;14.91;32.85;100616.94;5050910;28;20116;-72
2022/03/12 10:08:57;;;;;;;13.52;10.05;;;;;;;14.98;32.43;100617.81;5053791;28;20489;-72
2022/03/12 10:11:23;;;;;;;15.88;9.32;;;;;;;15.16;32.71;100610.13;5054536;28;20037;-71
2022/03/12 10:13:49;;;;;;;14.98;9.98;;;;;;;15.05;32.36;100610.66;5054342;28;20036;-71
2022/03/12 10:16:18;;;;;;;12.38;8.70;;;;;;;15.66;32.12;100610.13;5054442;28;20478;-71
2022/03/12 10:18:45;;;;;;;11.82;8.52;;;;;;;16.04;30.98;100596.25;5054442;28;20029;-71
2022/03/12 10:21:11;;;;;;;12.63;9.00;;;;;;;16.17;30.99;100590.91;5054427;28;20029;-72
2022/03/12 10:23:37;;;;;;;12.88;8.75;;;;;;;16.13;31.38;100595.88;5054184;28;20025;-71
2022/03/12 10:26:02;;;;;;;14.13;8.85;;;;;;;16.38;30.56;100589.97;5054495;28;20056;-71
2022/03/12 10:28:32;;;;;;;14.32;8.93;;;;;;;16.79;30.18;100600.63;5054546;28;20410;-71
2022/03/12 10:30:58;;;;;;;13.77;9.18;;;;;;;17.16;29.79;100590.28;5054256;28;20033;-71
2022/03/12 10:33:25;;;;;;;12.25;9.32;;;;;;;16.90;30.03;100597.31;5054029;28;20036;-71
2022/03/12 10:35:51;;;;;;;13.50;9.23;;;;;;;17.18;29.83;100588.22;5054192;28;20029;-72
2022/03/12 10:38:17;;;;;;;12.95;8.98;;;;;;;17.00;30.31;100588.84;5054082;28;20067;-71
2022/03/12 10:40:44;;;;;;;13.40;8.98;;;;;;;16.91;30.41;100582.84;5054207;28;20150;-72
2022/03/12 10:43:13;;;;;;;10.00;8.20;;;;;;;17.02;30.71;100578.72;5053769;28;20258;-72
2022/03/12 10:45:43;;;;;;;11.57;8.88;;;;;;;17.35;30.51;100581.38;5035938;28;20045;-72
2022/03/12 10:48:09;;;;;;;10.88;8.55;;;;;;;17.54;30.32;100575.13;5053993;28;20103;-72
2022/03/12 10:50:43;;;;;;;10.32;8.02;;;;;;;17.51;30.91;100570.13;5053679;28;20263;-72
2022/03/12 10:53:11;;;;;;;12.02;8.00;;;;;;;17.78;30.67;100568.22;5053616;28;20041;-71
2022/03/12 10:55:43;;;;;;;10.02;8.18;;;;;;;18.19;30.12;100569.69;5053676;28;20041;-72
2022/03/12 10:58:15;;;;;;;12.05;8.18;;;;;;;18.72;29.03;100564.03;5053854;28;20029;-71
2022/03/12 11:01:00;;;;;;;11.38;8.00;;;;;;;19.17;28.51;100566.53;5036855;28;20029;-72
2022/03/12 11:03:29;;;;;;;10.40;8.15;;;;;;;19.06;27.74;100572.69;5053458;28;20098;-71
2022/03/12 11:05:56;;;;;;;13.63;8.27;;;;;;;19.88;26.99;100559.81;5035754;28;20033;-72
2022/03/12 11:08:24;;;;;;;9.43;8.05;;;;;;;20.32;28.07;100559.44;5053378;28;20041;-72
2022/03/12 11:10:54;;;;;;;10.75;7.95;;;;;;;20.68;25.86;100557.69;5053475;28;20044;-71
2022/03/12 11:13:47;;;;;;;11.35;8.68;;;;;;;20.34;27.24;100551.06;5053050;28;20033;-71
2022/03/12 11:16:24;;;;;;;10.85;7.30;;;;;;;20.59;26.78;100550.94;5032452;28;20126;-71
2022/03/12 11:18:53;;;;;;;10.82;7.72;;;;;;;21.06;26.34;100551.00;5053402;28;20064;-72
2022/03/12 11:21:50;;;;;;;10.57;7.30;;;;;;;20.91;26.51;100551.47;5053169;28;20037;-72
2022/03/12 11:24:28;;;;;;;12.63;8.13;;;;;;;19.76;27.94;100544.38;5053445;28;20256;-71
2022/03/12 11:26:58;;;;;;;11.40;7.25;;;;;;;20.19;26.89;100545.25;5053454;28;20127;-71
2022/03/12 11:29:26;;;;;;;12.48;7.85;;;;;;;19.97;27.17;100544.94;5053372;28;20224;-71
2022/03/12 11:32:05;;;;;;;9.43;7.47;;;;;;;20.08;27.51;100559.56;5048047;22;20486;-70
2022/03/12 11:34:32;;;;;;;10.00;7.10;;;;;;;20.04;27.45;100551.09;5013372;28;20085;-71
2022/03/12 11:36:59;;;;;;;9.43;7.30;;;;;;;19.97;26.89;100550.34;4995764;28;20034;-71
2022/03/12 11:39:39;;;;;;;8.85;6.65;;;;;;;20.05;27.22;100547.31;4995839;28;20038;-70
2022/03/12 11:42:10;;;;;;;11.32;6.70;;;;;;;20.28;27.24;100547.44;5009129;28;20487;-70
2022/03/12 11:44:41;;;;;;;9.18;6.35;;;;;;;20.34;27.71;100537.53;4993922;28;20185;-70
2022/03/12 11:47:07;;;;;;;10.00;6.63;;;;;;;19.64;28.61;100540.75;4991974;28;20251;-70
2022/03/12 11:49:33;;;;;;;7.35;6.15;;;;;;;19.89;29.65;100526.34;4993471;28;20042;-73
2022/03/12 11:52:00;;;;;;;7.93;5.20;;;;;;;20.63;29.04;100524.25;4991978;28;20027;-70
2022/03/12 11:54:26;;;;;;;7.65;5.85;;;;;;;20.32;29.18;100521.56;4993465;28;20392;-70
2022/03/12 11:56:52;;;;;;;6.55;5.10;;;;;;;20.31;29.00;100519.91;4993455;28;20041;-70
2022/03/12 11:59:19;;;;;;;6.72;5.40;;;;;;;20.17;29.23;100515.75;4993463;28;20043;-70
2022/03/12 12:02:01;;;;;;;5.28;4.07;;;;;;;20.68;29.24;100514.38;4992968;28;20117;-71
2022/03/12 12:04:30;;;;;;;7.15;5.05;;;;;;;20.20;30.33;100511.75;4993519;28;20121;-69
2022/03/12 12:06:57;;;;;;;7.07;5.78;;;;;;;20.78;28.25;100511.91;4993323;28;20399;-69
2022/03/12 12:09:22;;;;;;;7.90;5.72;;;;;;;21.33;27.52;100494.53;4993220;28;20479;-71
2022/03/12 12:11:48;;;;;;;7.00;5.57;;;;;;;20.66;28.86;100502.94;4992859;28;20040;-70
2022/03/12 12:14:16;;;;;;;7.63;5.45;;;;;;;20.06;29.43;100489.47;4992964;28;20389;-71
2022/03/12 12:16:43;;;;;;;7.43;5.72;;;;;;;20.59;28.21;100488.72;4993079;28;20049;-70
2022/03/12 12:19:10;;;;;;;7.03;6.32;;;;;;;21.24;26.88;100496.72;4993196;28;20132;-72
2022/03/12 12:21:36;;;;;;;8.73;6.22;;;;;;;21.31;26.67;100488.50;4992726;28;20500;-71
2022/03/12 12:24:26;;;;;;;8.60;6.85;;;;;;;21.47;27.41;100495.09;4992888;28;20365;-71
2022/03/12 12:27:04;;;;;;;9.60;7.00;;;;;;;21.00;26.43;100490.53;4992900;28;20041;-71
2022/03/12 12:29:47;;;;;;;7.78;6.38;;;;;;;20.59;27.47;100488.72;4992841;28;20045;-71
2022/03/12 12:32:21;;;;;;;8.88;6.78;;;;;;;20.24;27.38;100489.44;4992273;28;20112;-72
2022/03/12 12:35:12;;;;;;;12.13;7.05;;;;;;;21.26;26.63;100486.50;4993029;28;20036;-72
2022/03/12 12:37:47;;;;;;;7.75;6.15;;;;;;;20.48;27.98;100484.94;4992906;28;20219;-70
2022/03/12 12:40:29;;;;;;;7.93;5.57;;;;;;;20.68;27.46;100478.38;4992854;28;20081;-69
2022/03/12 12:42:58;;;;;;;8.02;6.00;;;;;;;20.23;28.31;100485.09;4992310;28;20133;-70
2022/03/12 12:45:27;;;;;;;7.68;6.07;;;;;;;19.12;29.51;100475.44;4992657;28;20511;-71
2022/03/12 12:48:09;;;;;;;7.97;6.25;;;;;;;18.98;29.83;100468.53;4992527;28;20048;-70
2022/03/12 12:50:36;;;;;;;9.18;6.28;;;;;;;19.13;29.63;100462.75;4992507;28;20049;-71
2022/03/12 12:53:13;;;;;;;7.60;5.50;;;;;;;18.55;31.15;100457.66;4992560;28;20129;-72
2022/03/12 12:55:39;;;;;;;;;;;;;;;18.91;30.00;100462.38;4993445;28;20048;-70
2022/03/12 12:58:05;;;;;;;6.90;5.68;;;;;;;18.58;30.94;100460.78;4993108;28;19939;-70
2022/03/12 13:00:34;;;;;;;7.22;6.00;;;;;;;18.76;30.85;100456.47;4992509;28;20034;-72
2022/03/12 13:03:06;;;;;;;9.98;8.20;;;;;;;18.25;30.83;100452.91;4991938;28;20463;-71
2022/03/12 13:05:47;;;;;;;11.80;8.20;;;;;;;18.45;30.55;100450.06;4991171;28;20041;-69
2022/03/12 13:08:13;;;;;;;9.43;7.55;;;;;;;18.89;29.75;100443.69;4992431;28;20046;-68
2022/03/12 13:10:39;;;;;;;11.48;6.60;;;;;;;18.41;30.84;100444.28;4992284;28;20026;-68
2022/03/12 13:13:13;;;;;;;8.90;6.72;;;;;;;18.34;30.71;100434.63;4991890;28;20061;-69
2022/03/12 13:15:41;;;;;;;9.77;6.60;;;;;;;18.58;30.40;100432.94;4992273;28;20472;-71
2022/03/12 13:18:21;;;;;;;7.32;5.70;;;;;;;18.88;29.92;100431.25;4992124;28;20484;-70
2022/03/12 13:20:47;;;;;;;;;;;;;;;18.89;30.38;100423.97;4992553;28;20494;-71
2022/03/12 13:23:15;;;;;;;9.30;6.45;;;;;;;19.32;29.61;100423.09;4991671;28;19917;-71
2022/03/12 13:25:46;;;;;;;9.48;6.93;;;;;;;19.11;29.72;100427.91;4992154;28;20510;-69
2022/03/12 13:28:12;;;;;;;6.55;5.53;;;;;;;19.24;29.63;100419.66;4992427;28;20038;-68
2022/03/12 13:30:38;;;;;;;8.05;6.10;;;;;;;18.97;30.47;100424.53;4974686;28;20042;-71
2022/03/12 13:33:07;;;;;;;7.32;5.63;;;;;;;18.90;31.64;100428.31;4990377;28;20042;-71
2022/03/12 13:35:33;;;;;;;9.70;6.57;;;;;;;19.45;29.62;100429.16;4992033;28;20127;-70
2022/03/12 13:38:00;;;;;;;7.80;5.57;;;;;;;18.35;31.81;100428.16;4992032;28;20039;-72
2022/03/12 13:40:28;;;;;;;8.35;6.53;;;;;;;18.82;30.38;100428.59;4974553;28;20458;-68
2022/03/12 13:43:05;;;;;;;9.35;6.30;;;;;;;18.40;31.15;100422.94;4975476;28;20038;-69
2022/03/12 13:45:32;;;;;;;9.48;6.70;;;;;;;18.10;32.02;100420.06;4978392;28;20329;-70
2022/03/12 13:48:00;;;;;;;9.10;6.15;;;;;;;18.42;31.24;100416.28;4995824;28;20371;-69
2022/03/12 13:50:27;;;;;;;8.65;6.20;;;;;;;18.96;29.99;100413.91;4978436;28;20068;-69
2022/03/12 13:53:07;;;;;;;9.75;5.88;;;;;;;18.88;29.94;100416.91;4995480;28;20084;-69
2022/03/12 13:55:35;;;;;;;9.25;6.40;;;;;;;18.35;30.60;100423.59;4995727;28;20395;-68
2022/03/12 13:58:02;;;;;;;;;;;;;;;17.75;31.78;100425.06;4996335;28;20055;-69
2022/03/12 14:00:29;;;;;;;9.27;6.70;;;;;;;17.55;32.36;100415.19;4996174;28;19914;-69
2022/03/12 14:02:57;;;;;;;8.00;5.78;;;;;;;17.64;32.31;100408.50;4995499;28;20050;-69
2022/03/12 14:05:27;;;;;;;;;;;;;;;17.09;33.52;100413.50;4996071;28;20104;-69
2022/03/12 14:07:54;;;;;;;11.43;6.90;;;;;;;17.21;32.38;100412.81;4995427;28;20106;-71
2022/03/12 14:10:23;;;;;;;8.20;6.25;;;;;;;16.94;33.18;100402.13;4995512;28;20043;-71
2022/03/12 14:13:05;;;;;;;10.38;6.85;;;;;;;16.95;33.05;100411.03;4995113;28;20054;-72
2022/03/12 14:15:32;;;;;;;9.80;7.13;;;;;;;16.77;33.32;100409.84;4995535;28;20038;-71
2022/03/12 14:18:04;;;;;;;8.00;6.57;;;;;;;16.44;33.93;100404.47;4995266;28;20525;-71
2022/03/12 14:20:36;;;;;;;9.88;6.28;;;;;;;16.08;36.00;100407.56;4995158;28;20041;-71
2022/03/12 14:23:02;;;;;;;8.23;6.50;;;;;;;16.26;35.79;100409.63;4995027;28;20041;-71
2022/03/12 14:25:28;;;;;;;9.10;6.38;;;;;;;16.36;35.37;100404.66;4995234;28;20034;-71
2022/03/12 14:27:54;;;;;;;9.63;6.78;;;;;;;16.22;34.40;100413.75;4995141;28;20038;-71
2022/03/12 14:30:22;;;;;;;10.60;6.72;;;;;;;16.50;34.01;100406.34;4995150;28;20096;-70
2022/03/12 14:32:49;;;;;;;9.52;6.38;;;;;;;16.20;34.55;100397.84;4994801;28;20039;-69
2022/03/12 14:35:14;;;;;;;10.85;7.32;;;;;;;15.86;36.30;100396.16;4995416;28;20522;-72
2022/03/12 14:37:42;;;;;;;10.32;7.05;;;;;;;16.29;35.06;100388.53;4995497;28;20034;-73
2022/03/12 14:40:10;;;;;;;10.38;6.47;;;;;;;15.99;35.02;100385.44;4995191;28;20042;-72
2022/03/12 14:42:37;;;;;;;8.10;5.90;;;;;;;16.35;34.28;100384.19;4993294;28;20042;-70
2022/03/12 14:45:04;;;;;;;9.40;6.38;;;;;;;16.33;33.81;100386.28;4977527;28;20054;-70
2022/03/12 14:47:29;;;;;;;10.82;7.10;;;;;;;16.21;34.28;100387.94;4994808;28;20038;-70
2022/03/12 14:49:56;;;;;;;7.30;5.68;;;;;;;16.00;34.83;100386.25;4994780;28;20129;-70
2022/03/12 14:52:29;;;;;;;9.85;6.13;;;;;;;15.89;35.11;100385.00;4994496;28;20042;-71
2022/03/12 14:54:58;;;;;;;7.93;5.97;;;;;;;15.71;35.75;100377.56;4993094;28;20069;-71
2022/03/12 14:57:28;;;;;;;7.40;5.65;;;;;;;15.87;35.65;100384.38;4994708;28;20061;-71
2022/03/12 14:59:55;;;;;;;9.93;5.90;;;;;;;15.56;35.86;100373.34;4994725;28;20042;-71
2022/03/12 15:02:32;;;;;;;8.68;6.15;;;;;;;15.39;36.46;100379.09;4994091;28;20101;-71
2022/03/12 15:05:04;;;;;;;8.23;6.13;;;;;;;15.44;36.37;100378.47;4994664;28;20080;-71
2022/03/12 15:07:34;;;;;;;8.10;5.90;;;;;;;15.71;35.96;100385.63;4994386;28;20495;-71
2022/03/12 15:10:18;;;;;;;8.10;5.88;;;;;;;15.84;35.18;100373.22;4994413;28;20088;-70
2022/03/12 15:12:46;;;;;;;6.22;5.25;;;;;;;15.69;35.45;100389.50;4993885;28;20451;-71
2022/03/12 15:15:20;;;;;;;10.10;5.68;;;;;;;15.63;35.67;100368.84;4994208;28;20034;-69
2022/03/12 15:18:11;;;;;;;8.90;5.35;;;;;;;15.53;36.57;100377.28;4994149;28;20117;-69
2022/03/12 15:20:43;;;;;;;7.45;5.82;;;;;;;15.44;36.15;100376.59;4994116;28;20042;-69
2022/03/12 15:23:09;;;;;;;8.32;6.00;;;;;;;15.55;36.38;100383.25;4976110;28;20097;-71
2022/03/12 15:25:37;;;;;;;8.52;5.82;;;;;;;15.66;35.96;100384.56;4994291;28;20491;-72
2022/03/12 15:28:07;;;;;;;8.95;6.00;;;;;;;15.33;36.67;100377.19;4994167;28;20045;-71
2022/03/12 15:30:37;;;;;;;7.18;5.53;;;;;;;15.31;36.55;100378.41;4994118;28;20038;-68
2022/03/12 15:33:03;;;;;;;9.10;6.18;;;;;;;15.25;36.82;100385.41;4993657;28;20109;-71
2022/03/12 15:35:41;;;;;;;9.40;6.07;;;;;;;15.38;36.40;100381.94;4976483;28;20528;-70
2022/03/12 15:38:09;;;;;;;7.95;5.35;;;;;;;15.44;35.99;100376.59;4993731;28;20030;-71
2022/03/12 15:40:37;;;;;;;6.82;5.15;;;;;;;15.26;36.67;100368.31;4993867;28;20113;-69
2022/03/12 15:43:03;;;;;;;7.85;5.03;;;;;;;15.35;36.39;100364.41;4976022;28;20121;-70
2022/03/12 15:45:30;;;;;;;6.65;5.00;;;;;;;15.26;36.57;100357.56;4993687;28;20034;-73
2022/03/12 15:47:56;;;;;;;8.15;5.50;;;;;;;15.18;36.87;100363.09;4993626;28;20047;-71
2022/03/12 15:50:23;;;;;;;6.82;5.25;;;;;;;15.18;36.72;100365.78;4993742;28;20042;-70
2022/03/12 15:52:50;;;;;;;7.55;5.40;;;;;;;14.87;37.24;100360.91;4993155;28;20030;-69
2022/03/12 15:55:22;;;;;;;6.28;5.03;;;;;;;14.86;37.76;100359.22;4993903;28;20049;-72
2022/03/12 15:57:49;;;;;;;11.50;7.70;;;;;;;14.77;37.65;100358.56;4993634;28;20042;-70
2022/03/12 16:00:20;;;;;;;11.65;8.75;;;;;;;14.70;37.89;100363.06;4976007;28;20046;-71
2022/03/12 16:02:47;;;;;;;6.40;5.10;;;;;;;14.81;37.33;100356.34;4993069;28;20049;-71
2022/03/12 16:05:13;;;;;;;8.18;5.13;;;;;;;14.66;38.20;100356.44;4975511;28;20069;-71
2022/03/12 16:07:39;;;;;;;6.68;5.10;;;;;;;14.66;38.24;100353.75;4993348;28;20125;-71
2022/03/12 16:10:11;;;;;;;9.75;5.10;;;;;;;14.76;38.00;100356.09;4993244;28;20145;-71
2022/03/12 16:12:41;;;;;;;6.40;5.05;;;;;;;14.72;37.77;100354.81;4992834;28;20038;-71
2022/03/12 16:15:10;;;;;;;8.18;4.97;;;;;;;14.63;38.32;100346.13;4993464;28;20511;-71
2022/03/12 16:17:37;;;;;;;7.30;4.40;;;;;;;14.50;38.23;100346.84;4993216;28;20518;-71
2022/03/12 16:20:14;;;;;;;7.55;4.82;;;;;;;14.38;38.89;100345.72;4993096;28;20395;-69
2022/03/12 16:22:42;;;;;;;6.65;4.88;;;;;;;14.27;38.74;100354.28;4992948;28;20117;-70
2022/03/12 16:25:09;;;;;;;6.45;4.78;;;;;;;14.21;38.84;100355.06;4993001;28;20038;-70
2022/03/12 16:27:42;;;;;;;6.05;4.68;;;;;;;14.14;39.08;100352.31;4992967;28;20053;-69
2022/03/12 16:30:09;;;;;;;6.75;4.28;;;;;;;14.18;38.40;100342.88;4992808;28;20057;-69
2022/03/12 16:32:36;;;;;;;9.60;6.60;;;;;;;14.15;38.55;100337.94;4992266;28;20042;-70
2022/03/12 16:35:02;;;;;;;8.55;4.88;;;;;;;13.97;38.72;100340.25;4992755;28;20038;-69
2022/03/12 16:37:28;;;;;;;8.38;5.85;;;;;;;14.03;38.38;100334.13;4992927;28;20026;-68
2022/03/12 16:39:55;;;;;;;7.07;5.05;;;;;;;14.05;38.70;100332.88;4991618;28;20049;-71
2022/03/12 16:42:21;;;;;;;9.27;4.70;;;;;;;13.88;38.96;100338.72;4992358;28;20042;-71
2022/03/12 16:44:48;;;;;;;10.32;5.47;;;;;;;13.89;38.66;100335.00;4975302;28;20091;-71
2022/03/12 16:47:17;;;;;;;7.85;5.15;;;;;;;13.74;38.89;100335.09;4992719;28;20046;-71
2022/03/12 16:49:48;;;;;;;11.63;5.78;;;;;;;13.78;39.18;100328.34;4992659;28;20070;-71
2022/03/12 16:52:15;;;;;;;7.50;5.03;;;;;;;13.71;39.25;100341.66;4992303;28;20030;-71